WetterOnline ( https://www.wetteronline.de )

Wetter aktuell Flensburg

Aktuelles Wetter: Schleswig (48m)

6-stündlich | Neueste Meldungen
Ortszeit Temperatur Wetter
Fr, 16.04. 2:00 2.4° C wolkenlos
Do, 15.04. 20:00 7.1° C bedeckt
Do, 15.04. 14:00 8.9° C bewölkt
Do, 15.04. 8:00 2.5° C leicht bewölkt
Do, 15.04. 2:00 1.6° C wolkenlos
Mi, 14.04. 20:00 5.5° C wolkenlos
Mi, 14.04. 14:00 8.8° C bedeckt
Mi, 14.04. 8:00 2.2° C wolkenlos
Ortszeit Temperatur Wetter
Fr, 16.04. 5:30 1.5° C wolkig
Fr, 16.04. 5:20 1.5° C wolkig
Fr, 16.04. 5:10 1.4° C wolkig
Fr, 16.04. 5:00 1.4° C leicht bewölkt
Fr, 16.04. 4:50 1.4° C leicht bewölkt
Fr, 16.04. 4:40 1.7° C leicht bewölkt
Fr, 16.04. 4:30 1.6° C fast wolkenlos
Fr, 16.04. 4:00 1.9° C wolkenlos
Fr, 16.04. 3:30 1.6° C wolkenlos
Fr, 16.04. 3:00 2.0° C wolkenlos
Fr, 16.04. 2:30 2.2° C wolkenlos
Fr, 16.04. 2:00 2.4° C wolkenlos
Ortszeit Relative Feuchte Sichtweite
Fr, 16.04. 2:00 69% 65 km
Do, 15.04. 20:00 43% 60 km
Do, 15.04. 14:00 38% 50 km
Do, 15.04. 8:00 77% 50 km
Do, 15.04. 2:00 79% 55 km
Mi, 14.04. 20:00 69% 55 km
Mi, 14.04. 14:00 44% 50 km
Mi, 14.04. 8:00 80% 50 km
Ortszeit Relative Feuchte Sichtweite
Fr, 16.04. 5:30 82% 45 km
Fr, 16.04. 5:20 82% -
Fr, 16.04. 5:10 81% -
Fr, 16.04. 5:00 78% 50 km
Fr, 16.04. 4:50 78% -
Fr, 16.04. 4:40 77% -
Fr, 16.04. 4:30 75% 60 km
Fr, 16.04. 4:00 72% 60 km
Fr, 16.04. 3:30 72% 60 km
Fr, 16.04. 3:00 70% 55 km
Fr, 16.04. 2:30 70% 55 km
Fr, 16.04. 2:00 69% 65 km
Ortszeit Niederschlagsmenge Niederschlagsart
Fr, 16.04. 2:00 0.0 l/m2 in 6 Std. -
Do, 15.04. 20:00 0.0 l/m2 in 12 Std. -
Do, 15.04. 14:00 0.0 l/m2 in 6 Std. -
Do, 15.04. 8:00 0.0 l/m2 in 12 Std. -
Do, 15.04. 2:00 0.0 l/m2 in 6 Std. -
Mi, 14.04. 20:00 0.1 l/m2 in 12 Std. Regen
Mi, 14.04. 14:00 0.0 l/m2 in 6 Std. -
Mi, 14.04. 8:00 0.1 l/m2 in 12 Std. -
Ortszeit Niederschlagsmenge Niederschlagsart
Fr, 16.04. 5:30 0.0 l/m2 in 1 Std. -
Fr, 16.04. 5:20 keine Meldung -
Fr, 16.04. 5:10 keine Meldung -
Fr, 16.04. 5:00 0.0 l/m2 in 1 Std. -
Fr, 16.04. 4:50 keine Meldung -
Fr, 16.04. 4:40 keine Meldung -
Fr, 16.04. 4:30 0.0 l/m2 in 1 Std. -
Fr, 16.04. 4:00 0.0 l/m2 in 1 Std. -
Fr, 16.04. 3:30 0.0 l/m2 in 1 Std. -
Fr, 16.04. 3:00 0.0 l/m2 in 1 Std. -
Fr, 16.04. 2:30 0.0 l/m2 in 1 Std. -
Fr, 16.04. 2:00 0.0 l/m2 in 1 Std. -
Ortszeit Stärke Spitze Richtung
km/h Bft. km/h Grad Sektor
Fr, 16.04. 2:00 9 2 15 330° NW
Do, 15.04. 20:00 7 2 33 20° N
Do, 15.04. 14:00 14 3 29 20° N
Do, 15.04. 8:00 7 2 14 10° N
Do, 15.04. 2:00 9 2 17 30° NO
Mi, 14.04. 20:00 4 1 25 270° W
Mi, 14.04. 14:00 7 2 29 280° W
Mi, 14.04. 8:00 13 3 22 290° W
Ortszeit Stärke Spitze Richtung
km/h Bft. km/h Grad Sektor
Fr, 16.04. 5:30 7 2 14 10° N
Fr, 16.04. 5:20 7 2 - 10° N
Fr, 16.04. 5:10 9 2 - 360° N
Fr, 16.04. 5:00 7 2 15 360° N
Fr, 16.04. 4:50 7 2 - 360° N
Fr, 16.04. 4:40 7 2 - 360° N
Fr, 16.04. 4:30 7 2 14 350° N
Fr, 16.04. 4:00 9 2 17 350° N
Fr, 16.04. 3:30 9 2 17 340° N
Fr, 16.04. 3:00 9 2 15 330° NW
Fr, 16.04. 2:30 9 2 15 330° NW
Fr, 16.04. 2:00 9 2 15 330° NW
Ortszeit Untergrenze Bedeckung Gattung
total tief tief mittel hoch
Fr, 16.04. 2:00 - 0/8 0/8 - - -
Do, 15.04. 20:00 6600 m 8/8 8/8 - - -
Do, 15.04. 14:00 1500 m 7/8 7/8 - - -
Do, 15.04. 8:00 8400 m 5/8 0/8 - - -
Do, 15.04. 2:00 - 0/8 0/8 - - -
Mi, 14.04. 20:00 - 0/8 0/8 - - -
Mi, 14.04. 14:00 1800 m 8/8 8/8 - - -
Mi, 14.04. 8:00 - 0/8 0/8 - - -
Ortszeit Bedeckungsgrad in Achtel und Wolkenuntergrenze
Fr, 16.04. 5:30 6(3300m)
Fr, 16.04. 5:20 6(3300m)
Fr, 16.04. 5:10 6(3300m)
Fr, 16.04. 5:00 2(3000m)
Fr, 16.04. 4:50 2(3000m)
Fr, 16.04. 4:40 2(3000m)
Fr, 16.04. 4:30 1(3300m)
Fr, 16.04. 4:00 1(3300m)
Fr, 16.04. 3:30 keine Wolken
Fr, 16.04. 3:00 keine Wolken
Fr, 16.04. 2:30 keine Wolken
Fr, 16.04. 2:00 keine Wolken
Ortszeit Luftdruck NN (hPa) Tendenz (hPa in 3 Std.)
Fr, 16.04. 2:00 1030 - 0,9
Do, 15.04. 20:00 1030 - 0,4
Do, 15.04. 14:00 1031 - 0,5
Do, 15.04. 8:00 1032 + 0,9
Do, 15.04. 2:00 1031 + 0,7
Mi, 14.04. 20:00 1029 + 0,4
Mi, 14.04. 14:00 1029 - 0,3
Mi, 14.04. 8:00 1029 + 0,5
Ortszeit Luftdruck NN (hPa) Tendenz (hPa in 3 Std.)
Fr, 16.04. 5:30 1029 - 0,7
Fr, 16.04. 5:20 1029 keine Meldung
Fr, 16.04. 5:10 1029 keine Meldung
Fr, 16.04. 5:00 1029 - 0,8
Fr, 16.04. 4:50 1029 keine Meldung
Fr, 16.04. 4:40 1029 keine Meldung
Fr, 16.04. 4:30 1029 - 1,1
Fr, 16.04. 4:00 1029 - 1,1
Fr, 16.04. 3:30 1029 - 1,2
Fr, 16.04. 3:00 1029 - 1,2
Fr, 16.04. 2:30 1030 - 1,0
Fr, 16.04. 2:00 1030 - 0,9
Ortszeit Schneehöhe (cm)
Fr, 16.04. 2:00 0
Do, 15.04. 20:00 0
Do, 15.04. 14:00 0
Do, 15.04. 8:00 0
Do, 15.04. 2:00 0
Mi, 14.04. 20:00 0
Mi, 14.04. 14:00 0
Mi, 14.04. 8:00 0
Ortszeit Schneehöhe (cm)
Fr, 16.04. 5:30 0
Fr, 16.04. 5:20 0
Fr, 16.04. 5:10 0
Fr, 16.04. 5:00 0
Fr, 16.04. 4:50 0
Fr, 16.04. 4:40 0
Fr, 16.04. 4:30 0
Fr, 16.04. 4:00 0
Fr, 16.04. 3:30 0
Fr, 16.04. 3:00 0
Fr, 16.04. 2:30 0
Fr, 16.04. 2:00 0
Link zu dieser Seite / Seite empfehlen

Das Wetter in ...